Pays
Station

 

Conditions  météo  pour  Reykjavik  -  Islande    Islande

  
2 °C
    
 
 

METAR pour Reykjavik :

BIRK 211900Z 03010KT CAVOK 02/M04 Q0964

 

Voici le bulletin pour Reykjavik - Islande.
 
Le bulletin a été fait il y a 24 minutes, à 19:00 UTC .
Le vent soufflait à la vitesse de 5.1 mètres par seconde de Nord/Nord-est (030°).
 
La température était de 2 °C, avec un point de rosée à -4 °C.
La température ressentie était de -3 °C.
 
La pression atmosphérique était de 964 hPa.
L'humidité relative était de 64.4%.
 
Il y avait pas de nuages en-dessous de 1500 mètres et pas de cumulonimbus.
 
La visibilité globale était de supérieure à 10 kilomètres.
 

 
 
 

Pays :   A   B   C   D   E   F   G   H   I   J   K   L   M   N   O   P   Q   R   S   T   U   V   W   Y   Z

 

Partenaires :  Info Météo avec Met'info
Météo Marine avec MeteoMarine.net
Infos Site  |  Infos Légales  |  Crédits  |  Confidentialité
Contactez-nous  |  Ajouter aux favoris
© 2013-2020 METAR - Tous droits réservés